Time;durP1;ratioP1;P1;durP2;ratioP2;P2;SDS_P1;SDS_P2;PMS_P1;PMS_P2;Temp;Humidity;BMP_temperature;BMP_pressure;BME280_temperature;BME280_humidity;BME280_pressure;Samples;Min_cycle;Max_cycle;Signal;HPM_P1;HPM_P2
2022/11/06 00:01:15;;;;;;;0.38;0.38;;;;;;;8.98;100.00;99341.16;5007009;28;20041;-81
2022/11/06 00:03:41;;;;;;;0.40;0.40;;;;;;;8.96;100.00;99331.66;5021897;28;20029;-80
2022/11/06 00:08:51;;;;;;;0.40;0.40;;;;;;;8.88;100.00;99321.13;5029478;28;20504;-78
2022/11/06 00:11:17;;;;;;;0.30;0.30;;;;;;;8.78;100.00;99305.41;4997358;28;20038;-82
2022/11/06 00:13:44;;;;;;;0.30;0.30;;;;;;;8.80;100.00;99304.16;5012045;28;20030;-81
2022/11/06 00:16:11;;;;;;;0.40;0.40;;;;;;;8.86;100.00;99315.13;5005818;28;20489;-79
2022/11/06 00:18:38;;;;;;;0.30;0.30;;;;;;;8.76;100.00;99291.41;4996969;28;20132;-82
2022/11/06 00:21:08;;;;;;;0.40;0.40;;;;;;;8.79;100.00;99291.00;5038959;28;20029;-79
2022/11/06 00:23:34;;;;;;;0.30;0.30;;;;;;;8.79;100.00;99289.13;4991388;28;20064;-79
2022/11/06 00:26:00;;;;;;;0.40;0.40;;;;;;;8.81;100.00;99294.28;5017099;28;20033;-79
2022/11/06 00:28:25;;;;;;;0.40;0.40;;;;;;;8.76;100.00;99292.22;5035207;28;20103;-82
2022/11/06 00:31:00;;;;;;;0.40;0.40;;;;;;;8.75;100.00;99269.09;5002181;28;20033;-78
2022/11/06 00:33:25;;;;;;;0.30;0.30;;;;;;;8.75;100.00;99274.47;5005176;28;20060;-81
2022/11/06 00:35:51;;;;;;;0.30;0.30;;;;;;;8.77;100.00;99271.59;5022978;28;20415;-81
2022/11/06 00:38:17;;;;;;;0.35;0.35;;;;;;;8.80;100.00;99269.34;4999382;28;20025;-80
2022/11/06 00:40:42;;;;;;;0.40;0.40;;;;;;;8.71;100.00;99261.69;5026171;28;20033;-80
2022/11/06 00:43:08;;;;;;;0.40;0.40;;;;;;;8.81;100.00;99270.16;5026369;28;20095;-79
2022/11/06 00:45:34;;;;;;;0.40;0.40;;;;;;;8.85;100.00;99266.06;5025329;28;20041;-80
2022/11/06 00:47:59;;;;;;;0.40;0.40;;;;;;;8.92;100.00;99266.09;4996157;28;20139;-80
2022/11/06 00:50:25;;;;;;;0.30;0.30;;;;;;;8.93;100.00;99251.66;5009645;28;20033;-81
2022/11/06 00:52:51;;;;;;;0.40;0.40;;;;;;;8.90;100.00;99246.69;4990415;28;20068;-80
2022/11/06 00:55:16;;;;;;;0.32;0.32;;;;;;;8.91;100.00;99246.47;5000751;28;20069;-82
2022/11/06 00:57:44;;;;;;;0.32;0.32;;;;;;;8.91;100.00;99251.03;4992020;28;20056;-79
2022/11/06 01:00:11;;;;;;;0.30;0.30;;;;;;;8.87;100.00;99249.78;5024139;28;20033;-81
2022/11/06 01:02:37;;;;;;;0.40;0.40;;;;;;;8.87;100.00;99247.09;5027106;28;20033;-79
2022/11/06 01:05:03;;;;;;;0.30;0.30;;;;;;;8.72;100.00;99236.53;5025279;28;20056;-81
2022/11/06 01:07:28;;;;;;;0.30;0.30;;;;;;;8.52;100.00;99236.44;5026881;28;20502;-82
2022/11/06 01:09:54;;;;;;;0.40;0.40;;;;;;;8.35;100.00;99230.56;4985499;28;20029;-81
2022/11/06 01:12:21;;;;;;;0.30;0.30;;;;;;;8.20;100.00;99235.22;5025741;28;20033;-79
2022/11/06 01:14:46;;;;;;;0.35;0.35;;;;;;;8.04;100.00;99228.34;4991283;28;20052;-83
2022/11/06 01:17:12;;;;;;;0.30;0.30;;;;;;;7.80;100.00;99208.22;5020111;28;20037;-81
2022/11/06 01:19:38;;;;;;;0.38;0.38;;;;;;;7.78;100.00;99221.81;4986830;28;20033;-80
2022/11/06 01:22:04;;;;;;;0.40;0.40;;;;;;;7.70;100.00;99224.66;5004000;28;20038;-84
2022/11/06 01:24:30;;;;;;;0.30;0.30;;;;;;;7.56;100.00;99207.66;4999523;28;20044;-81
2022/11/06 01:26:56;;;;;;;0.40;0.40;;;;;;;7.28;100.00;99164.88;4995360;28;20041;-81
2022/11/06 01:29:21;;;;;;;0.30;0.30;;;;;;;7.54;100.00;99187.47;5012100;28;20025;-83
2022/11/06 01:31:49;;;;;;;0.30;0.30;;;;;;;7.57;100.00;99189.75;5024256;28;20025;-79
2022/11/06 01:34:15;;;;;;;0.35;0.35;;;;;;;7.63;100.00;99186.31;5003708;28;20038;-79
2022/11/06 01:36:41;;;;;;;0.38;0.38;;;;;;;7.55;100.00;99165.88;4998666;28;20037;-81
2022/11/06 01:39:10;;;;;;;0.40;0.40;;;;;;;7.76;100.00;99188.25;5010328;28;20037;-80
2022/11/06 01:41:39;;;;;;;0.35;0.35;;;;;;;7.70;100.00;99182.66;5006425;28;20403;-84
2022/11/06 01:44:23;;;;;;;0.40;0.40;;;;;;;7.73;100.00;99186.78;4991957;28;20494;-80
2022/11/06 01:46:48;;;;;;;0.40;0.40;;;;;;;7.69;100.00;99180.16;5043676;28;20605;-79
2022/11/06 01:49:15;;;;;;;0.40;0.40;;;;;;;7.60;100.00;99176.81;5008096;28;20038;-82
2022/11/06 01:51:48;;;;;;;0.40;0.40;;;;;;;7.65;100.00;99184.28;5027851;28;20387;-80
2022/11/06 01:54:15;;;;;;;0.40;0.40;;;;;;;7.61;100.00;99191.03;4990878;28;20071;-81
2022/11/06 01:56:41;;;;;;;0.30;0.30;;;;;;;7.66;100.00;99191.25;5007418;28;20088;-80
2022/11/06 01:59:08;;;;;;;0.30;0.30;;;;;;;7.78;100.00;99189.72;5007804;28;20045;-81
2022/11/06 02:01:34;;;;;;;0.30;0.30;;;;;;;7.83;100.00;99184.59;5053512;28;20025;-79
2022/11/06 02:04:20;;;;;;;0.40;0.40;;;;;;;8.04;100.00;99180.16;5009069;28;20037;-80
2022/11/06 02:06:46;;;;;;;0.30;0.30;;;;;;;8.13;100.00;99176.31;5003926;28;20083;-78
2022/11/06 02:09:12;;;;;;;0.40;0.40;;;;;;;8.20;100.00;99171.78;5011995;28;20029;-80
2022/11/06 02:11:40;;;;;;;0.40;0.40;;;;;;;8.21;100.00;99176.13;5022460;28;20112;-80
2022/11/06 02:14:40;;;;;;;0.30;0.30;;;;;;;8.25;100.00;99163.16;5000967;28;20037;-81
2022/11/06 02:17:15;;;;;;;0.30;0.30;;;;;;;8.31;100.00;99157.84;5034029;28;20041;-81
2022/11/06 02:19:57;;;;;;;0.40;0.40;;;;;;;8.37;100.00;99158.91;5036076;28;20176;-80
2022/11/06 02:23:20;;;;;;;0.40;0.40;;;;;;;8.42;100.00;99139.59;5020411;28;20026;-80
2022/11/06 02:25:58;;;;;;;0.30;0.30;;;;;;;8.22;100.00;99108.16;5005900;28;20057;-81
2022/11/06 02:28:29;;;;;;;0.30;0.30;;;;;;;8.37;100.00;99122.22;4989791;28;20056;-83
2022/11/06 02:30:57;;;;;;;0.30;0.30;;;;;;;8.40;100.00;99122.88;5007612;28;20048;-81
2022/11/06 02:33:29;;;;;;;0.40;0.40;;;;;;;8.39;100.00;99124.75;5036663;28;20387;-80
2022/11/06 02:35:59;;;;;;;0.40;0.40;;;;;;;8.21;100.00;99092.31;5024496;28;20124;-81
2022/11/06 02:38:29;;;;;;;0.30;0.30;;;;;;;8.23;100.00;99093.78;5028547;28;20124;-83
2022/11/06 02:40:59;;;;;;;0.40;0.40;;;;;;;8.27;100.00;99095.00;5028959;28;20113;-83
2022/11/06 02:43:29;;;;;;;0.40;0.40;;;;;;;8.30;100.00;99099.94;5013096;28;20132;-80
2022/11/06 02:46:02;;;;;;;0.40;0.40;;;;;;;8.29;100.00;99090.28;5044046;28;20033;-83
2022/11/06 02:48:31;;;;;;;0.30;0.30;;;;;;;8.34;100.00;99084.31;5010239;28;20115;-83
2022/11/06 02:50:58;;;;;;;0.40;0.40;;;;;;;8.34;100.00;99077.09;5018144;28;20072;-80
2022/11/06 02:53:25;;;;;;;0.40;0.40;;;;;;;8.28;100.00;99069.03;5013808;28;20391;-80
2022/11/06 02:55:58;;;;;;;0.40;0.40;;;;;;;8.19;100.00;99057.69;5026856;28;20025;-80
2022/11/06 02:58:46;;;;;;;0.40;0.40;;;;;;;8.20;100.00;99063.88;4999431;28;20115;-84
2022/11/06 03:01:33;;;;;;;0.30;0.30;;;;;;;8.07;100.00;99056.63;4991352;28;20134;-79
2022/11/06 03:04:03;;;;;;;0.40;0.40;;;;;;;8.14;100.00;99050.28;4992356;28;20034;-80
2022/11/06 03:06:37;;;;;;;0.40;0.40;;;;;;;8.21;100.00;99061.00;5006306;28;20033;-80
2022/11/06 03:09:26;;;;;;;0.40;0.40;;;;;;;8.28;100.00;99059.19;5014488;28;20037;-79
2022/11/06 03:12:19;;;;;;;0.40;0.40;;;;;;;8.34;100.00;99052.19;5037681;28;20524;-81
2022/11/06 03:15:16;;;;;;;0.40;0.40;;;;;;;8.37;100.00;99049.09;5012373;28;20053;-81
2022/11/06 03:18:04;;;;;;;0.38;0.38;;;;;;;8.59;100.00;99050.59;5013348;28;20047;-79
2022/11/06 03:20:44;;;;;;;0.40;0.40;;;;;;;8.59;100.00;99047.09;5026597;28;20041;-78
2022/11/06 03:23:17;;;;;;;0.40;0.40;;;;;;;8.57;100.00;99041.09;5025479;28;20130;-80
2022/11/06 03:25:56;;;;;;;0.40;0.40;;;;;;;8.59;100.00;99052.44;5026481;28;20108;-79
2022/11/06 03:28:28;;;;;;;0.40;0.40;;;;;;;8.57;100.00;99054.50;5004871;28;20115;-82
2022/11/06 03:30:57;;;;;;;0.40;0.40;;;;;;;8.49;100.00;99041.31;5011019;28;20091;-81
2022/11/06 03:33:31;;;;;;;0.40;0.40;;;;;;;8.38;100.00;99032.81;4991795;28;20037;-81
2022/11/06 03:36:33;;;;;;;0.40;0.40;;;;;;;8.37;100.00;99030.34;5041840;28;20064;-81
2022/11/06 03:39:02;;;;;;;0.38;0.38;;;;;;;8.29;100.00;99022.50;4998521;28;20541;-80
2022/11/06 03:41:43;;;;;;;0.30;0.30;;;;;;;8.21;100.00;99028.88;5016832;28;20280;-79
2022/11/06 03:44:12;;;;;;;0.40;0.40;;;;;;;8.08;100.00;99018.16;4986942;28;20107;-80
2022/11/06 03:46:43;;;;;;;0.40;0.40;;;;;;;8.14;100.00;99026.19;5011057;28;20033;-80
2022/11/06 03:49:12;;;;;;;0.40;0.40;;;;;;;8.07;100.00;99011.97;4989086;28;20033;-81
2022/11/06 03:51:46;;;;;;;0.30;0.30;;;;;;;8.03;100.00;99007.22;5007604;28;20029;-79
2022/11/06 03:54:25;;;;;;;0.40;0.40;;;;;;;7.90;100.00;98991.94;4993714;28;20064;-79
2022/11/06 03:56:56;;;;;;;0.40;0.40;;;;;;;7.85;100.00;98995.22;4992817;28;20118;-80
2022/11/06 03:59:26;;;;;;;0.40;0.40;;;;;;;7.79;100.00;98976.47;5006979;28;20468;-79
2022/11/06 04:01:54;;;;;;;0.40;0.40;;;;;;;7.81;100.00;98980.59;5027857;28;20116;-81
2022/11/06 04:05:03;;;;;;;0.30;0.30;;;;;;;7.69;100.00;98976.84;5024872;28;20038;-79
2022/11/06 04:13:55;;;;;;;0.38;0.38;;;;;;;7.77;100.00;98968.66;5023892;28;20391;-82
2022/11/06 04:15:57;;;;;;;0.30;0.30;;;;;;;7.71;100.00;98964.09;5010069;28;20184;-82
2022/11/06 04:18:23;;;;;;;0.40;0.40;;;;;;;7.69;100.00;98958.94;5025846;28;20128;-79
2022/11/06 04:27:11;;;;;;;0.38;0.38;;;;;;;7.40;100.00;98945.88;5030262;28;20278;-83
2022/11/06 04:30:03;;;;;;;0.40;0.40;;;;;;;7.42;100.00;98955.34;5006813;28;21926;-84
2022/11/06 04:32:57;;;;;;;0.40;0.40;;;;;;;7.39;100.00;98934.38;5006536;28;20045;-80
2022/11/06 04:35:33;;;;;;;0.30;0.30;;;;;;;7.45;100.00;98941.59;5020297;28;20107;-79
2022/11/06 04:38:06;;;;;;;0.40;0.40;;;;;;;7.40;100.00;98938.69;5024044;28;20502;-79
2022/11/06 04:40:34;;;;;;;0.40;0.40;;;;;;;7.43;100.00;98932.94;5025256;28;20037;-79
2022/11/06 04:44:05;;;;;;;0.40;0.40;;;;;;;7.47;100.00;98926.19;5004012;28;20042;-81
2022/11/06 04:46:53;;;;;;;0.40;0.40;;;;;;;7.42;100.00;98919.78;4925869;28;20062;-79
2022/11/06 04:49:20;;;;;;;0.40;0.40;;;;;;;7.42;100.00;98912.56;4933931;29;20248;-78
2022/11/06 04:51:46;;;;;;;0.50;0.50;;;;;;;7.31;100.00;98907.81;4946479;28;20049;-79
2022/11/06 04:54:13;;;;;;;0.40;0.40;;;;;;;7.25;100.00;98909.44;5024401;28;20384;-80
2022/11/06 04:56:38;;;;;;;0.30;0.30;;;;;;;7.22;100.00;98892.97;5018557;28;20026;-81
2022/11/06 04:59:04;;;;;;;0.40;0.40;;;;;;;7.25;100.00;98900.56;5011065;28;20269;-81
2022/11/06 05:01:30;;;;;;;0.40;0.40;;;;;;;7.18;100.00;98894.41;5007776;28;20464;-79
2022/11/06 05:03:56;;;;;;;0.40;0.40;;;;;;;7.11;100.00;98893.53;5007344;28;20029;-79
2022/11/06 05:06:22;;;;;;;0.38;0.38;;;;;;;7.05;100.00;98895.16;4992240;28;20041;-81
2022/11/06 05:08:47;;;;;;;0.40;0.40;;;;;;;6.88;100.00;98889.34;5023617;28;20430;-81
2022/11/06 05:11:13;;;;;;;0.50;0.50;;;;;;;6.93;100.00;98896.72;5026178;28;20030;-78
2022/11/06 05:13:39;;;;;;;0.30;0.30;;;;;;;6.90;100.00;98881.94;4987613;28;20060;-78
2022/11/06 05:16:04;;;;;;;7.82;1.30;;;;;;;6.77;100.00;98882.72;4988551;28;20038;-82
2022/11/06 05:18:30;;;;;;;0.30;0.30;;;;;;;6.71;100.00;98872.78;5021192;28;20048;-81
2022/11/06 05:23:44;;;;;;;0.40;0.40;;;;;;;6.81;100.00;98870.59;5017950;28;20104;-79
2022/11/06 05:26:10;;;;;;;0.40;0.40;;;;;;;6.77;100.00;98873.84;5004400;28;20029;-81
2022/11/06 05:28:36;;;;;;;0.30;0.30;;;;;;;6.65;100.00;98873.59;5004562;28;20074;-78
2022/11/06 05:31:01;;;;;;;1.52;0.93;;;;;;;6.64;100.00;98868.44;5010530;28;20037;-80
2022/11/06 05:33:27;;;;;;;0.40;0.40;;;;;;;6.50;100.00;98859.53;5021983;28;20048;-78
2022/11/06 05:35:53;;;;;;;0.30;0.30;;;;;;;6.31;100.00;98866.38;4993333;28;20033;-80
2022/11/06 05:38:19;;;;;;;0.50;0.50;;;;;;;6.23;100.00;98854.00;5018035;28;20033;-82
2022/11/06 05:40:45;;;;;;;0.40;0.40;;;;;;;6.27;100.00;98855.28;5018690;28;20500;-83
2022/11/06 05:43:11;;;;;;;0.40;0.40;;;;;;;6.24;100.00;98854.81;5022376;28;20037;-81
2022/11/06 05:45:36;;;;;;;0.40;0.40;;;;;;;6.42;100.00;98844.47;5022033;28;20403;-78
2022/11/06 05:48:02;;;;;;;0.40;0.40;;;;;;;6.59;100.00;98853.84;4990756;28;20403;-79
2022/11/06 05:50:28;;;;;;;0.50;0.50;;;;;;;6.67;100.00;98849.34;4992865;28;20056;-78
2022/11/06 05:52:53;;;;;;;0.40;0.40;;;;;;;6.69;100.00;98842.78;5023725;28;20460;-80
2022/11/06 05:55:19;;;;;;;0.30;0.30;;;;;;;6.75;100.00;98841.19;5016202;28;20029;-78
2022/11/06 05:57:44;;;;;;;0.50;0.50;;;;;;;6.83;100.00;98838.34;5011278;28;20434;-78
2022/11/06 06:00:11;;;;;;;0.82;0.50;;;;;;;6.95;100.00;98831.38;5023351;28;20029;-79
2022/11/06 06:02:37;;;;;;;0.40;0.40;;;;;;;7.10;100.00;98833.09;5006498;28;20064;-79
2022/11/06 06:05:04;;;;;;;0.40;0.40;;;;;;;7.07;100.00;98825.50;5002305;28;20140;-78
2022/11/06 06:07:30;;;;;;;0.40;0.40;;;;;;;7.11;100.00;98824.88;5015481;28;20026;-80
2022/11/06 06:09:56;;;;;;;0.40;0.40;;;;;;;7.12;100.00;98825.69;5012234;28;20044;-79
2022/11/06 06:12:25;;;;;;;0.40;0.40;;;;;;;7.18;100.00;98827.56;5028000;28;20100;-82
2022/11/06 06:14:51;;;;;;;0.40;0.40;;;;;;;7.23;100.00;98825.94;5030930;28;20044;-79
2022/11/06 06:17:17;;;;;;;0.50;0.50;;;;;;;7.19;100.00;98805.16;5005311;28;20187;-81
2022/11/06 06:19:43;;;;;;;1.55;0.40;;;;;;;7.16;100.00;98805.56;4992370;28;20146;-79
2022/11/06 06:22:08;;;;;;;0.40;0.40;;;;;;;7.18;100.00;98808.88;5023148;28;20041;-79
2022/11/06 06:24:34;;;;;;;0.50;0.50;;;;;;;7.22;100.00;98800.25;5026705;28;20033;-83
2022/11/06 06:27:05;;;;;;;1.42;0.50;;;;;;;7.19;100.00;98799.81;5024789;28;20042;-79
2022/11/06 06:29:37;;;;;;;0.77;0.73;;;;;;;7.21;100.00;98805.78;5012759;28;20025;-79
2022/11/06 06:32:03;;;;;;;0.80;0.80;;;;;;;7.18;100.00;98803.53;5004672;28;20033;-81
2022/11/06 06:34:29;;;;;;;0.50;0.50;;;;;;;7.18;100.00;98793.66;4993574;28;20068;-82
2022/11/06 06:36:54;;;;;;;1.27;0.70;;;;;;;7.14;100.00;98780.88;5017443;28;20068;-79
2022/11/06 06:39:20;;;;;;;7.85;0.80;;;;;;;7.17;100.00;98791.16;4991056;28;20308;-81
2022/11/06 06:41:46;;;;;;;0.70;0.70;;;;;;;7.14;100.00;98786.22;5021360;28;23459;-80
2022/11/06 06:44:12;;;;;;;0.52;0.52;;;;;;;7.08;100.00;98774.50;5017509;28;20029;-80
2022/11/06 06:46:38;;;;;;;0.50;0.50;;;;;;;7.24;100.00;98786.66;4986715;28;20052;-81
2022/11/06 06:49:04;;;;;;;1.75;0.93;;;;;;;7.24;100.00;98771.44;5018171;28;20037;-80
2022/11/06 06:51:29;;;;;;;0.55;0.55;;;;;;;7.18;100.00;98771.44;4987337;28;20032;-79
2022/11/06 06:53:55;;;;;;;4.57;0.70;;;;;;;7.27;100.00;98770.22;5018487;28;20837;-84
2022/11/06 06:56:21;;;;;;;0.45;0.45;;;;;;;7.21;100.00;98765.69;4990911;28;20069;-79
2022/11/06 06:58:46;;;;;;;0.50;0.50;;;;;;;7.22;100.00;98764.66;5007642;28;20042;-82
2022/11/06 07:01:13;;;;;;;1.58;0.85;;;;;;;7.35;100.00;98759.31;5021365;28;20116;-81
2022/11/06 07:03:39;;;;;;;3.88;1.05;;;;;;;7.41;100.00;98749.66;4991574;28;20116;-78
2022/11/06 07:06:05;;;;;;;6.30;1.02;;;;;;;7.30;100.00;98745.75;5002548;28;20124;-80
2022/11/06 07:08:31;;;;;;;1.40;0.88;;;;;;;7.18;100.00;98736.69;5022161;28;20026;-80
2022/11/06 07:11:02;;;;;;;0.85;0.82;;;;;;;7.11;100.00;98730.50;4988938;28;20045;-78
2022/11/06 07:13:28;;;;;;;4.57;0.90;;;;;;;7.13;100.00;98736.47;4991595;28;20179;-82
2022/11/06 07:15:54;;;;;;;4.97;1.20;;;;;;;7.09;100.00;98732.56;5026054;28;20030;-81
2022/11/06 07:18:20;;;;;;;1.60;0.75;;;;;;;7.11;100.00;98749.22;5007652;28;20025;-80
2022/11/06 07:20:45;;;;;;;2.40;0.70;;;;;;;7.11;100.00;98738.53;4999769;28;20029;-79
2022/11/06 07:23:11;;;;;;;11.07;1.75;;;;;;;7.20;100.00;98742.66;5021884;28;20056;-80
2022/11/06 07:25:37;;;;;;;1.40;1.10;;;;;;;7.19;100.00;98739.16;5004554;28;20056;-80
2022/11/06 07:28:04;;;;;;;1.63;1.17;;;;;;;7.14;100.00;98735.44;5026009;28;20036;-81
2022/11/06 07:30:30;;;;;;;5.63;0.98;;;;;;;7.12;100.00;98724.13;5004401;28;20507;-79
2022/11/06 07:32:55;;;;;;;1.45;0.77;;;;;;;7.10;100.00;98727.03;5003754;28;21944;-80
2022/11/06 07:35:21;;;;;;;3.42;0.80;;;;;;;7.25;100.00;98721.47;5020024;28;20032;-80
2022/11/06 07:37:47;;;;;;;1.15;0.80;;;;;;;7.38;100.00;98701.94;4993736;28;20045;-79
2022/11/06 07:40:13;;;;;;;2.88;0.70;;;;;;;7.49;100.00;98715.53;5005368;28;20087;-80
2022/11/06 07:42:39;;;;;;;2.03;1.60;;;;;;;7.50;100.00;98697.63;5010104;28;20033;-83
2022/11/06 07:45:06;;;;;;;2.80;1.00;;;;;;;7.72;100.00;98707.06;5009909;28;20041;-81
2022/11/06 07:47:31;;;;;;;1.52;0.60;;;;;;;7.78;100.00;98716.16;5009900;28;20045;-82
2022/11/06 07:49:57;;;;;;;5.78;1.27;;;;;;;7.82;100.00;98717.34;5003905;28;20044;-81
2022/11/06 07:52:23;;;;;;;0.60;0.60;;;;;;;7.85;100.00;98716.94;4997379;28;22058;-80
2022/11/06 07:54:48;;;;;;;3.13;1.30;;;;;;;7.87;100.00;98712.22;5012869;28;20498;-79
2022/11/06 07:57:14;;;;;;;5.78;1.48;;;;;;;8.01;100.00;98712.19;5006596;28;20033;-80
2022/11/06 07:59:41;;;;;;;0.70;0.50;;;;;;;8.07;100.00;98717.53;4990612;28;20037;-78
2022/11/06 08:02:11;;;;;;;1.23;0.90;;;;;;;8.01;100.00;98701.47;4999991;28;20056;-82
2022/11/06 08:04:37;;;;;;;4.70;1.20;;;;;;;8.10;100.00;98710.94;5003268;28;20091;-85
2022/11/06 08:07:04;;;;;;;2.50;0.82;;;;;;;8.15;100.00;98711.13;5020576;28;20044;-79
2022/11/06 08:09:30;;;;;;;0.73;0.60;;;;;;;8.27;100.00;98709.44;5022788;28;20416;-78
2022/11/06 08:11:56;;;;;;;11.02;1.35;;;;;;;8.29;100.00;98683.28;5010022;28;20048;-79
2022/11/06 08:14:21;;;;;;;3.78;0.85;;;;;;;8.53;100.00;98710.41;5024817;28;20037;-80
2022/11/06 08:16:47;;;;;;;2.97;1.02;;;;;;;8.70;100.00;98716.09;5027693;28;20040;-79
2022/11/06 08:19:13;;;;;;;4.53;1.05;;;;;;;8.65;100.00;98695.28;5011308;28;20037;-80
2022/11/06 08:21:38;;;;;;;4.70;1.10;;;;;;;8.67;100.00;98711.97;5006572;28;20363;-82
2022/11/06 08:24:10;;;;;;;4.72;1.85;;;;;;;8.66;100.00;98706.84;5023734;28;21928;-79
2022/11/06 08:26:35;;;;;;;0.73;0.60;;;;;;;8.66;100.00;98693.44;5044031;28;20091;-80
2022/11/06 08:29:01;;;;;;;3.60;0.82;;;;;;;8.83;100.00;98693.75;5024210;28;21260;-82
2022/11/06 08:31:27;;;;;;;6.30;1.25;;;;;;;8.92;100.00;98690.63;5022213;28;20034;-79
2022/11/06 08:33:58;;;;;;;5.15;1.55;;;;;;;9.20;100.00;98695.56;5022260;28;20037;-81
2022/11/06 08:36:23;;;;;;;3.45;1.05;;;;;;;9.35;100.00;98691.75;5023206;28;20120;-80
2022/11/06 08:38:49;;;;;;;5.47;1.13;;;;;;;9.29;100.00;98674.69;5021296;28;20113;-80
2022/11/06 08:41:15;;;;;;;3.22;1.30;;;;;;;9.39;100.00;98698.31;5027322;28;20549;-79
2022/11/06 08:43:41;;;;;;;1.17;0.73;;;;;;;9.38;100.00;98694.81;5003859;28;20027;-81
2022/11/06 08:46:08;;;;;;;4.18;1.15;;;;;;;9.45;100.00;98690.22;5023843;28;20108;-79
2022/11/06 08:48:33;;;;;;;1.02;0.70;;;;;;;9.60;100.00;98689.88;5025541;28;20036;-79
2022/11/06 08:50:59;;;;;;;1.02;0.68;;;;;;;9.91;100.00;98701.56;5027082;28;20549;-82
2022/11/06 08:53:25;;;;;;;3.38;0.82;;;;;;;10.17;100.00;98686.25;5007441;28;20055;-81
2022/11/06 08:55:50;;;;;;;4.85;0.80;;;;;;;10.26;100.00;98692.94;5004176;28;20168;-82
2022/11/06 08:58:16;;;;;;;5.90;1.52;;;;;;;10.08;100.00;98699.97;5025946;28;20033;-82
2022/11/06 09:00:42;;;;;;;2.00;0.82;;;;;;;10.01;100.00;98695.72;5023261;28;20064;-84
2022/11/06 09:03:13;;;;;;;3.63;1.05;;;;;;;9.93;100.00;98688.75;5004971;28;20086;-80
2022/11/06 09:05:47;;;;;;;6.68;1.90;;;;;;;9.88;100.00;98681.38;5018328;28;20037;-79
2022/11/06 09:08:13;;;;;;;3.60;1.13;;;;;;;10.15;100.00;98680.28;5017388;28;20315;-80
2022/11/06 09:10:41;;;;;;;6.18;1.27;;;;;;;10.88;100.00;98674.00;5017069;28;20041;-79
2022/11/06 09:13:07;;;;;;;1.80;1.20;;;;;;;11.84;100.00;98682.78;5020691;28;20040;-81
2022/11/06 09:15:32;;;;;;;7.15;1.55;;;;;;;11.54;100.00;98669.47;4991501;28;20336;-81
2022/11/06 09:18:00;;;;;;;4.63;1.17;;;;;;;10.99;100.00;98682.09;5034997;28;20404;-79
2022/11/06 09:20:27;;;;;;;9.55;1.92;;;;;;;11.28;100.00;98674.22;5007298;28;20030;-79
2022/11/06 09:22:53;;;;;;;2.92;0.90;;;;;;;11.47;100.00;98674.94;4992642;28;20041;-79
2022/11/06 09:25:19;;;;;;;4.13;1.48;;;;;;;12.27;100.00;98671.63;5025693;28;20049;-79
2022/11/06 09:27:48;;;;;;;5.10;1.08;;;;;;;11.73;100.00;98670.16;4998132;28;20049;-81
2022/11/06 09:30:16;;;;;;;2.35;1.02;;;;;;;11.17;100.00;98673.16;4990665;28;20920;-79
2022/11/06 09:32:51;;;;;;;1.58;1.00;;;;;;;10.83;100.00;98650.50;5018984;28;20045;-80
2022/11/06 09:35:16;;;;;;;4.72;1.63;;;;;;;11.07;100.00;98662.13;5026593;28;20033;-80
2022/11/06 09:37:42;;;;;;;4.00;1.67;;;;;;;12.38;100.00;98661.88;5018626;28;20709;-80
2022/11/06 09:40:28;;;;;;;5.43;1.67;;;;;;;12.38;100.00;98666.44;5010501;28;20131;-83
2022/11/06 09:43:06;;;;;;;4.57;1.52;;;;;;;11.77;100.00;98666.75;5015517;28;20045;-86
2022/11/06 09:45:32;;;;;;;5.72;1.50;;;;;;;11.11;100.00;98657.09;5021511;28;20030;-82
2022/11/06 09:48:11;;;;;;;2.40;1.75;;;;;;;10.60;100.00;98645.03;4996387;28;20075;-78
2022/11/06 09:50:41;;;;;;;2.55;1.17;;;;;;;11.00;100.00;98650.63;5019266;28;20029;-78
2022/11/06 09:53:16;;;;;;;3.00;1.27;;;;;;;12.34;100.00;98654.53;4988060;28;20553;-80
2022/11/06 09:55:42;;;;;;;3.10;1.80;;;;;;;14.08;100.00;98655.56;5014959;28;22130;-80
2022/11/06 09:58:21;;;;;;;7.95;1.58;;;;;;;14.26;99.55;98662.53;4992451;28;20030;-78
2022/11/06 10:00:49;;;;;;;5.93;2.08;;;;;;;14.47;97.56;98658.19;5055601;28;20030;-84
2022/11/06 10:03:37;;;;;;;4.78;1.85;;;;;;;15.24;92.94;98657.16;5001423;28;20445;-81
2022/11/06 10:06:03;;;;;;;4.55;1.27;;;;;;;15.47;91.28;98649.72;5013924;28;20061;-81
2022/11/06 10:08:29;;;;;;;2.38;1.05;;;;;;;15.53;91.51;98641.41;4992280;28;20067;-81
2022/11/06 10:11:02;;;;;;;4.38;0.88;;;;;;;14.91;95.28;98641.94;5025283;28;20025;-81
2022/11/06 10:13:40;;;;;;;2.35;0.93;;;;;;;13.79;100.00;98623.31;5012377;28;20044;-80
2022/11/06 10:16:35;;;;;;;4.97;1.90;;;;;;;12.63;100.00;98639.19;5024298;28;20041;-79
2022/11/06 10:19:03;;;;;;;1.75;0.77;;;;;;;11.74;100.00;98639.47;5044233;28;20123;-79
2022/11/06 10:21:55;;;;;;;2.50;0.85;;;;;;;11.21;100.00;98642.03;5028924;28;20029;-82
2022/11/06 10:24:34;;;;;;;3.33;1.50;;;;;;;12.38;100.00;98648.41;5001862;28;20057;-79
2022/11/06 10:27:06;;;;;;;2.78;1.10;;;;;;;13.66;100.00;98628.25;5007136;28;20038;-85
2022/11/06 10:29:57;;;;;;;4.45;1.33;;;;;;;14.60;99.37;98635.41;5008255;28;20128;-84
2022/11/06 10:32:25;;;;;;;7.70;1.95;;;;;;;15.20;94.45;98625.44;5055009;28;20033;-84
2022/11/06 10:35:16;;;;;;;3.05;1.55;;;;;;;14.45;98.29;98631.44;5011069;28;20022;-83
2022/11/06 10:37:54;;;;;;;4.63;1.45;;;;;;;15.28;95.51;98614.94;4983836;28;20034;-83
2022/11/06 10:40:26;;;;;;;4.25;1.77;;;;;;;16.12;87.17;98612.50;5007559;28;20033;-83
2022/11/06 10:43:15;;;;;;;4.32;1.45;;;;;;;16.83;83.39;98592.91;5028275;28;20033;-83
2022/11/06 10:45:44;;;;;;;2.80;1.52;;;;;;;16.34;85.13;98612.31;5007866;28;20483;-82
2022/11/06 10:48:21;;;;;;;1.63;1.33;;;;;;;17.19;81.43;98607.31;5032570;28;20048;-83
2022/11/06 10:51:11;;;;;;;1.65;1.15;;;;;;;16.24;85.86;98611.19;4998790;28;20490;-83
2022/11/06 10:54:13;;;;;;;3.67;1.60;;;;;;;14.98;92.52;98620.06;5015662;28;20164;-84
2022/11/06 10:56:57;;;;;;;3.75;1.80;;;;;;;15.56;91.63;98602.16;5032734;28;20032;-83
2022/11/06 10:59:23;;;;;;;1.30;1.00;;;;;;;15.43;91.67;98599.88;5029219;28;20037;-84
2022/11/06 11:01:48;;;;;;;4.13;2.28;;;;;;;15.88;92.70;98593.97;5000114;28;20038;-83
2022/11/06 11:04:14;;;;;;;3.13;1.60;;;;;;;17.57;84.16;98603.22;5017570;28;20032;-83
2022/11/06 11:06:40;;;;;;;2.63;1.40;;;;;;;18.52;77.97;98579.78;5028626;28;20025;-78
2022/11/06 11:09:28;;;;;;;4.97;1.40;;;;;;;17.13;80.88;98603.78;4997723;28;20056;-78
2022/11/06 11:11:54;;;;;;;1.75;1.00;;;;;;;15.91;88.18;98585.28;5024875;28;20025;-79
2022/11/06 11:14:37;;;;;;;4.25;1.00;;;;;;;15.72;90.21;98601.19;4994076;28;20037;-79
2022/11/06 11:17:07;;;;;;;5.90;1.40;;;;;;;15.18;92.96;98598.59;5034935;28;20045;-80
2022/11/06 11:19:41;;;;;;;2.03;1.52;;;;;;;13.97;99.12;98602.44;4998055;28;20544;-78
2022/11/06 11:22:23;;;;;;;5.40;1.60;;;;;;;13.00;100.00;98604.53;5043967;28;20072;-79
2022/11/06 11:25:04;;;;;;;3.20;1.00;;;;;;;12.40;100.00;98596.97;4996921;28;20045;-81
2022/11/06 11:27:34;;;;;;;1.88;1.02;;;;;;;12.00;100.00;98581.63;5041438;28;20498;-79
2022/11/06 11:30:03;;;;;;;7.50;2.33;;;;;;;11.77;100.00;98587.84;5025712;28;22213;-82
2022/11/06 11:32:30;;;;;;;4.00;1.20;;;;;;;11.61;100.00;98584.81;5017868;28;20044;-81
2022/11/06 11:34:56;;;;;;;2.50;0.90;;;;;;;11.56;100.00;98600.84;4994502;28;20041;-81
2022/11/06 11:37:27;;;;;;;2.47;1.17;;;;;;;11.43;100.00;98580.41;5031608;28;20033;-80
2022/11/06 11:39:53;;;;;;;2.42;1.10;;;;;;;11.56;100.00;98594.66;5004458;28;20036;-81
2022/11/06 11:42:27;;;;;;;2.88;1.20;;;;;;;11.56;100.00;98589.28;5008238;28;20033;-80
2022/11/06 11:45:08;;;;;;;1.75;0.93;;;;;;;11.54;100.00;98588.72;4998229;28;20135;-79
2022/11/06 11:47:36;;;;;;;2.05;1.38;;;;;;;11.45;100.00;98589.03;5011876;28;20033;-81
2022/11/06 11:50:31;;;;;;;2.75;1.20;;;;;;;11.83;100.00;98595.00;5012909;28;20041;-80
2022/11/06 11:53:19;;;;;;;5.47;2.10;;;;;;;12.45;100.00;98591.66;5041210;28;20185;-81
2022/11/06 11:55:47;;;;;;;5.78;2.75;;;;;;;12.82;100.00;98586.69;4995506;28;20038;-82
2022/11/06 11:58:27;;;;;;;6.72;1.60;;;;;;;13.77;100.00;98579.50;5007149;28;20049;-81
2022/11/06 12:01:02;;;;;;;4.63;1.70;;;;;;;13.96;99.30;98536.78;5021988;28;20064;-79
2022/11/06 12:03:33;;;;;;;7.50;1.60;;;;;;;13.87;100.00;98576.13;5011792;28;20471;-81
2022/11/06 12:06:12;;;;;;;1.45;1.02;;;;;;;14.03;96.70;98577.97;5012706;28;20057;-81